AIC2202 OMDB-VABB
Flight info
| Callsign | AIC2202 |
|---|---|
| Flight time | N/A |
| Altitude | 35000 |
| Route | IVURO M677 LALDO B505 NADSO A777 VAXIM L301 KARKU M638 EXOLU POKON2A |
| Aircraft | A21N/M-SDE2E3FGHIRWXY/LB1 |
Departure
| Time | N/A |
|---|---|
| Airport | Dubai International Airport (OMDB) |
Arrival
| Time | 2026-04-30 18:15 |
|---|---|
| Airport | Chhatrapati Shivaji Maharaj International Airport (VABB) |
| Time | Latitude | Longitude | Altitude | Speed | Heading |
|---|---|---|---|---|---|
| 2026-04-30 15:10 | 25.25928 | 55.34451 | 27 ft | 0 kts | 211° |
| 2026-04-30 17:39 | 20.26244 | 71.41622 | 33820 ft | 461 kts | 107° |
| 2026-04-30 17:41 | 20.14497 | 71.64937 | 31814 ft | 451 kts | 133° |
| 2026-04-30 17:42 | 20.10220 | 71.69804 | 31305 ft | 448 kts | 132° |
| 2026-04-30 17:42 | 20.03899 | 71.77075 | 30496 ft | 443 kts | 132° |
| 2026-04-30 17:43 | 19.99743 | 71.81853 | 29553 ft | 438 kts | 132° |
| 2026-04-30 17:44 | 19.93540 | 71.88972 | 27955 ft | 436 kts | 131° |
| 2026-04-30 17:44 | 19.87404 | 71.96009 | 26387 ft | 433 kts | 131° |
| 2026-04-30 17:46 | 19.77199 | 72.07660 | 23746 ft | 428 kts | 133° |
| 2026-04-30 17:47 | 19.68677 | 72.15798 | 22287 ft | 401 kts | 136° |
| 2026-04-30 17:48 | 19.60518 | 72.23547 | 20434 ft | 388 kts | 137° |
| 2026-04-30 17:48 | 19.54541 | 72.29215 | 19061 ft | 380 kts | 137° |
| 2026-04-30 17:49 | 19.47444 | 72.35939 | 17203 ft | 366 kts | 137° |
| 2026-04-30 17:50 | 19.40072 | 72.42915 | 15487 ft | 346 kts | 138° |
| 2026-04-30 17:51 | 19.34745 | 72.47951 | 14371 ft | 340 kts | 139° |
| 2026-04-30 17:52 | 19.29517 | 72.52887 | 13273 ft | 329 kts | 139° |
| 2026-04-30 17:53 | 19.21666 | 72.61082 | 11832 ft | 304 kts | 109° |
| 2026-04-30 17:54 | 19.21480 | 72.69738 | 11270 ft | 295 kts | 89° |
| 2026-04-30 17:55 | 19.21469 | 72.78415 | 11116 ft | 294 kts | 90° |
| 2026-04-30 17:56 | 19.21413 | 72.87074 | 10943 ft | 294 kts | 90° |
| 2026-04-30 17:57 | 19.21372 | 72.93527 | 10844 ft | 293 kts | 90° |
| 2026-04-30 17:58 | 19.21325 | 73.00010 | 10852 ft | 294 kts | 90° |
| 2026-04-30 17:59 | 19.21258 | 73.08654 | 10850 ft | 294 kts | 90° |
| 2026-04-30 18:00 | 19.21227 | 73.17289 | 10294 ft | 296 kts | 89° |
| 2026-04-30 18:00 | 19.21304 | 73.23797 | 9132 ft | 293 kts | 88° |
| 2026-04-30 18:01 | 19.21347 | 73.28097 | 8376 ft | 291 kts | 88° |
| 2026-04-30 18:02 | 19.21406 | 73.34451 | 6981 ft | 284 kts | 88° |
| 2026-04-30 18:02 | 19.20910 | 73.40272 | 6267 ft | 253 kts | 123° |
| 2026-04-30 18:03 | 19.16622 | 73.42258 | 5574 ft | 227 kts | 184° |
| 2026-04-30 18:04 | 19.12293 | 73.41285 | 4886 ft | 209 kts | 233° |
| 2026-04-30 18:05 | 19.10336 | 73.35770 | 3987 ft | 202 kts | 259° |
| 2026-04-30 18:06 | 19.09983 | 73.29872 | 3093 ft | 200 kts | 270° |
| 2026-04-30 18:07 | 19.09965 | 73.23962 | 3001 ft | 201 kts | 270° |
| 2026-04-30 18:08 | 19.09804 | 73.19513 | 3004 ft | 203 kts | 265° |
| 2026-04-30 18:09 | 19.09299 | 73.13611 | 2996 ft | 202 kts | 265° |
| 2026-04-30 18:10 | 19.09164 | 73.07679 | 2996 ft | 202 kts | 269° |
| 2026-04-30 18:11 | 19.09083 | 73.01812 | 2724 ft | 186 kts | 269° |
| 2026-04-30 18:11 | 19.09031 | 72.98081 | 1969 ft | 155 kts | 268° |
| 2026-04-30 18:12 | 19.08984 | 72.94690 | 1360 ft | 153 kts | 267° |
| 2026-04-30 18:13 | 19.08954 | 72.92497 | 994 ft | 136 kts | 266° |
| 2026-04-30 18:13 | 19.08917 | 72.89860 | 496 ft | 134 kts | 267° |
| 2026-04-30 18:14 | 19.08885 | 72.87557 | 88 ft | 134 kts | 268° |
| 2026-04-30 18:15 | 19.08891 | 72.85945 | 51 ft | 19 kts | 297° |
| 2026-04-30 18:15 | 19.09034 | 72.85986 | 54 ft | 17 kts | 91° |
| 2026-04-30 18:16 | 19.09035 | 72.86273 | 54 ft | 16 kts | 89° |
| 2026-04-30 18:16 | 19.09186 | 72.86489 | 54 ft | 21 kts | 49° |
| 2026-04-30 18:17 | 19.09282 | 72.86607 | 55 ft | 12 kts | 50° |
| 2026-04-30 18:17 | 19.09342 | 72.86683 | 55 ft | 15 kts | 50° |
| 2026-04-30 18:17 | 19.09510 | 72.86879 | 53 ft | 21 kts | 47° |
| 2026-04-30 18:18 | 19.09556 | 72.87002 | 55 ft | 13 kts | 106° |
| 2026-04-30 18:18 | 19.09606 | 72.87093 | 55 ft | 16 kts | 45° |
| 2026-04-30 18:18 | 19.09656 | 72.87147 | 55 ft | 7 kts | 63° |
| 2026-04-30 18:18 | 19.09633 | 72.87199 | 55 ft | 6 kts | 136° |
| 2026-04-30 18:19 | 19.09606 | 72.87229 | 55 ft | 2 kts | 134° |
| 2026-04-30 18:19 | 19.09602 | 72.87233 | 55 ft | 0 kts | 133° |